sensor_id;sensor_type;location;lat;lon;timestamp;pressure;altitude;pressure_sealevel;temperature
20289;BMP180;10303;51.960;8.372;2022-12-24T00:02:22;99248.00;;;13.20
20289;BMP180;10303;51.960;8.372;2022-12-24T00:04:47;99256.00;;;13.20
20289;BMP180;10303;51.960;8.372;2022-12-24T00:07:14;99270.00;;;13.10
20289;BMP180;10303;51.960;8.372;2022-12-24T00:09:40;99269.00;;;13.10
20289;BMP180;10303;51.960;8.372;2022-12-24T00:12:06;99284.00;;;13.20
20289;BMP180;10303;51.960;8.372;2022-12-24T00:14:32;99275.00;;;13.00
20289;BMP180;10303;51.960;8.372;2022-12-24T00:16:58;99276.00;;;12.90
20289;BMP180;10303;51.960;8.372;2022-12-24T00:19:24;99278.00;;;12.80
20289;BMP180;10303;51.960;8.372;2022-12-24T00:21:50;99289.00;;;12.50
20289;BMP180;10303;51.960;8.372;2022-12-24T00:24:16;99291.00;;;12.60
20289;BMP180;10303;51.960;8.372;2022-12-24T00:26:42;99289.00;;;12.60
20289;BMP180;10303;51.960;8.372;2022-12-24T00:29:10;99295.00;;;12.60
20289;BMP180;10303;51.960;8.372;2022-12-24T00:31:36;99304.00;;;12.80
20289;BMP180;10303;51.960;8.372;2022-12-24T00:34:02;99289.00;;;12.90
20289;BMP180;10303;51.960;8.372;2022-12-24T00:36:29;99309.00;;;13.00
20289;BMP180;10303;51.960;8.372;2022-12-24T00:38:55;99296.00;;;13.00
20289;BMP180;10303;51.960;8.372;2022-12-24T00:41:21;99307.00;;;12.90
20289;BMP180;10303;51.960;8.372;2022-12-24T00:43:51;99305.00;;;12.80
20289;BMP180;10303;51.960;8.372;2022-12-24T00:46:18;99298.00;;;12.90
20289;BMP180;10303;51.960;8.372;2022-12-24T00:48:44;99317.00;;;12.80
20289;BMP180;10303;51.960;8.372;2022-12-24T00:51:10;99326.00;;;12.90
20289;BMP180;10303;51.960;8.372;2022-12-24T00:53:36;99325.00;;;13.00
20289;BMP180;10303;51.960;8.372;2022-12-24T00:56:02;99331.00;;;12.90
20289;BMP180;10303;51.960;8.372;2022-12-24T00:58:27;99335.00;;;12.80
20289;BMP180;10303;51.960;8.372;2022-12-24T01:00:53;99347.00;;;12.80
20289;BMP180;10303;51.960;8.372;2022-12-24T01:03:19;99356.00;;;12.60
20289;BMP180;10303;51.960;8.372;2022-12-24T01:05:45;99347.00;;;12.60
20289;BMP180;10303;51.960;8.372;2022-12-24T01:08:13;99361.00;;;12.60
20289;BMP180;10303;51.960;8.372;2022-12-24T01:10:39;99356.00;;;12.70
20289;BMP180;10303;51.960;8.372;2022-12-24T01:13:05;99365.00;;;12.70
20289;BMP180;10303;51.960;8.372;2022-12-24T01:15:30;99365.00;;;12.60
20289;BMP180;10303;51.960;8.372;2022-12-24T01:17:56;99375.00;;;12.70
20289;BMP180;10303;51.960;8.372;2022-12-24T01:20:23;99376.00;;;12.60
20289;BMP180;10303;51.960;8.372;2022-12-24T01:22:51;99379.00;;;12.60
20289;BMP180;10303;51.960;8.372;2022-12-24T01:25:17;99378.00;;;12.60
20289;BMP180;10303;51.960;8.372;2022-12-24T01:27:43;99384.00;;;12.50
20289;BMP180;10303;51.960;8.372;2022-12-24T01:30:12;99392.00;;;12.60
20289;BMP180;10303;51.960;8.372;2022-12-24T01:32:39;99392.00;;;12.70
20289;BMP180;10303;51.960;8.372;2022-12-24T01:35:06;99396.00;;;12.70
20289;BMP180;10303;51.960;8.372;2022-12-24T01:37:32;99402.00;;;12.80
20289;BMP180;10303;51.960;8.372;2022-12-24T01:39:58;99399.00;;;12.90
20289;BMP180;10303;51.960;8.372;2022-12-24T01:42:47;99412.00;;;12.80
20289;BMP180;10303;51.960;8.372;2022-12-24T01:45:51;99415.00;;;12.80
20289;BMP180;10303;51.960;8.372;2022-12-24T01:48:50;99418.00;;;12.70
20289;BMP180;10303;51.960;8.372;2022-12-24T01:51:34;99425.00;;;12.80
20289;BMP180;10303;51.960;8.372;2022-12-24T01:54:10;99421.00;;;12.80
20289;BMP180;10303;51.960;8.372;2022-12-24T01:56:43;99423.00;;;12.80
20289;BMP180;10303;51.960;8.372;2022-12-24T01:59:14;99434.00;;;12.80
20289;BMP180;10303;51.960;8.372;2022-12-24T02:01:40;99436.00;;;12.70
20289;BMP180;10303;51.960;8.372;2022-12-24T02:04:27;99448.00;;;12.80
20289;BMP180;10303;51.960;8.372;2022-12-24T02:06:54;99434.00;;;12.70
20289;BMP180;10303;51.960;8.372;2022-12-24T02:09:20;99443.00;;;12.80
20289;BMP180;10303;51.960;8.372;2022-12-24T02:11:46;99450.00;;;12.90
20289;BMP180;10303;51.960;8.372;2022-12-24T02:14:14;99473.00;;;12.90
20289;BMP180;10303;51.960;8.372;2022-12-24T02:17:00;99454.00;;;12.90
20289;BMP180;10303;51.960;8.372;2022-12-24T02:32:40;99486.00;;;13.10
20289;BMP180;10303;51.960;8.372;2022-12-24T02:35:18;99486.00;;;13.00
20289;BMP180;10303;51.960;8.372;2022-12-24T02:40:44;99485.00;;;13.00
20289;BMP180;10303;51.960;8.372;2022-12-24T02:43:18;99499.00;;;13.00
20289;BMP180;10303;51.960;8.372;2022-12-24T02:45:52;99499.00;;;12.80
20289;BMP180;10303;51.960;8.372;2022-12-24T02:48:22;99498.00;;;12.90
20289;BMP180;10303;51.960;8.372;2022-12-24T02:51:07;99509.00;;;12.90
20289;BMP180;10303;51.960;8.372;2022-12-24T02:53:35;99503.00;;;12.90
20289;BMP180;10303;51.960;8.372;2022-12-24T02:56:23;99505.00;;;12.80
20289;BMP180;10303;51.960;8.372;2022-12-24T02:59:23;99508.00;;;12.80
20289;BMP180;10303;51.960;8.372;2022-12-24T03:05:03;99524.00;;;12.80
20289;BMP180;10303;51.960;8.372;2022-12-24T03:12:58;99544.00;;;12.80
20289;BMP180;10303;51.960;8.372;2022-12-24T03:15:28;99555.00;;;12.90
20289;BMP180;10303;51.960;8.372;2022-12-24T03:17:59;99554.00;;;12.90
20289;BMP180;10303;51.960;8.372;2022-12-24T03:23:49;99569.00;;;12.90
20289;BMP180;10303;51.960;8.372;2022-12-24T03:26:18;99574.00;;;12.90
20289;BMP180;10303;51.960;8.372;2022-12-24T03:28:46;99577.00;;;12.90
20289;BMP180;10303;51.960;8.372;2022-12-24T03:31:13;99573.00;;;12.80
20289;BMP180;10303;51.960;8.372;2022-12-24T03:33:40;99579.00;;;12.90
20289;BMP180;10303;51.960;8.372;2022-12-24T03:36:07;99574.00;;;12.90
20289;BMP180;10303;51.960;8.372;2022-12-24T03:38:34;99587.00;;;13.00
20289;BMP180;10303;51.960;8.372;2022-12-24T03:41:00;99594.00;;;13.00
20289;BMP180;10303;51.960;8.372;2022-12-24T03:43:26;99592.00;;;13.10
20289;BMP180;10303;51.960;8.372;2022-12-24T03:45:52;99590.00;;;13.10
20289;BMP180;10303;51.960;8.372;2022-12-24T03:48:17;99606.00;;;13.10
20289;BMP180;10303;51.960;8.372;2022-12-24T03:50:43;99593.00;;;13.10
20289;BMP180;10303;51.960;8.372;2022-12-24T03:53:09;99596.00;;;13.10
20289;BMP180;10303;51.960;8.372;2022-12-24T03:55:37;99588.00;;;13.00
20289;BMP180;10303;51.960;8.372;2022-12-24T03:58:03;99592.00;;;13.00
20289;BMP180;10303;51.960;8.372;2022-12-24T04:00:29;99583.00;;;13.00
20289;BMP180;10303;51.960;8.372;2022-12-24T04:02:55;99590.00;;;13.10
20289;BMP180;10303;51.960;8.372;2022-12-24T04:05:21;99597.00;;;13.00
20289;BMP180;10303;51.960;8.372;2022-12-24T04:07:47;99604.00;;;13.00
20289;BMP180;10303;51.960;8.372;2022-12-24T04:10:14;99610.00;;;13.00
20289;BMP180;10303;51.960;8.372;2022-12-24T04:12:41;99608.00;;;13.10
20289;BMP180;10303;51.960;8.372;2022-12-24T04:15:08;99615.00;;;13.10
20289;BMP180;10303;51.960;8.372;2022-12-24T04:17:35;99606.00;;;13.10
20289;BMP180;10303;51.960;8.372;2022-12-24T04:20:01;99619.00;;;12.90
20289;BMP180;10303;51.960;8.372;2022-12-24T04:22:27;99626.00;;;12.90
20289;BMP180;10303;51.960;8.372;2022-12-24T04:24:52;99634.00;;;12.90
20289;BMP180;10303;51.960;8.372;2022-12-24T04:27:18;99626.00;;;12.90
20289;BMP180;10303;51.960;8.372;2022-12-24T04:29:44;99635.00;;;12.90
20289;BMP180;10303;51.960;8.372;2022-12-24T04:32:10;99626.00;;;12.90
20289;BMP180;10303;51.960;8.372;2022-12-24T04:34:36;99637.00;;;12.90
20289;BMP180;10303;51.960;8.372;2022-12-24T04:37:02;99624.00;;;12.90
20289;BMP180;10303;51.960;8.372;2022-12-24T04:39:28;99642.00;;;12.90
20289;BMP180;10303;51.960;8.372;2022-12-24T04:41:54;99648.00;;;12.90
20289;BMP180;10303;51.960;8.372;2022-12-24T04:44:20;99646.00;;;12.90
20289;BMP180;10303;51.960;8.372;2022-12-24T04:46:46;99659.00;;;13.00
20289;BMP180;10303;51.960;8.372;2022-12-24T04:49:12;99660.00;;;13.00
20289;BMP180;10303;51.960;8.372;2022-12-24T04:51:38;99667.00;;;13.00
20289;BMP180;10303;51.960;8.372;2022-12-24T04:54:04;99674.00;;;13.00
20289;BMP180;10303;51.960;8.372;2022-12-24T04:56:31;99669.00;;;12.90
20289;BMP180;10303;51.960;8.372;2022-12-24T04:59:01;99659.00;;;12.90
20289;BMP180;10303;51.960;8.372;2022-12-24T05:01:31;99671.00;;;12.90
20289;BMP180;10303;51.960;8.372;2022-12-24T05:03:58;99678.00;;;13.00
20289;BMP180;10303;51.960;8.372;2022-12-24T05:06:29;99670.00;;;12.90
20289;BMP180;10303;51.960;8.372;2022-12-24T05:08:58;99678.00;;;12.90
20289;BMP180;10303;51.960;8.372;2022-12-24T05:11:24;99670.00;;;12.90
20289;BMP180;10303;51.960;8.372;2022-12-24T05:13:51;99682.00;;;12.90
20289;BMP180;10303;51.960;8.372;2022-12-24T05:16:20;99670.00;;;12.90
20289;BMP180;10303;51.960;8.372;2022-12-24T05:18:46;99674.00;;;12.80
20289;BMP180;10303;51.960;8.372;2022-12-24T05:21:21;99680.00;;;12.80
20289;BMP180;10303;51.960;8.372;2022-12-24T05:23:48;99692.00;;;12.70
20289;BMP180;10303;51.960;8.372;2022-12-24T05:26:38;99691.00;;;12.70
20289;BMP180;10303;51.960;8.372;2022-12-24T05:29:07;99703.00;;;12.60
20289;BMP180;10303;51.960;8.372;2022-12-24T05:31:34;99700.00;;;12.60
20289;BMP180;10303;51.960;8.372;2022-12-24T05:34:01;99695.00;;;12.60
20289;BMP180;10303;51.960;8.372;2022-12-24T05:36:28;99696.00;;;12.60
20289;BMP180;10303;51.960;8.372;2022-12-24T05:38:54;99700.00;;;12.60
20289;BMP180;10303;51.960;8.372;2022-12-24T05:41:20;99716.00;;;12.60
20289;BMP180;10303;51.960;8.372;2022-12-24T05:43:46;99710.00;;;12.60
20289;BMP180;10303;51.960;8.372;2022-12-24T05:46:18;99717.00;;;12.60
20289;BMP180;10303;51.960;8.372;2022-12-24T05:48:45;99724.00;;;12.60
20289;BMP180;10303;51.960;8.372;2022-12-24T05:51:13;99722.00;;;12.60
20289;BMP180;10303;51.960;8.372;2022-12-24T05:53:40;99726.00;;;12.60
20289;BMP180;10303;51.960;8.372;2022-12-24T05:56:10;99719.00;;;12.60
20289;BMP180;10303;51.960;8.372;2022-12-24T05:58:37;99716.00;;;12.60
20289;BMP180;10303;51.960;8.372;2022-12-24T06:01:04;99721.00;;;12.60
20289;BMP180;10303;51.960;8.372;2022-12-24T06:03:30;99728.00;;;12.60
20289;BMP180;10303;51.960;8.372;2022-12-24T06:06:03;99733.00;;;12.60
20289;BMP180;10303;51.960;8.372;2022-12-24T06:08:31;99730.00;;;12.60
20289;BMP180;10303;51.960;8.372;2022-12-24T06:11:01;99731.00;;;12.60
20289;BMP180;10303;51.960;8.372;2022-12-24T06:13:28;99736.00;;;12.60
20289;BMP180;10303;51.960;8.372;2022-12-24T06:16:00;99740.00;;;12.60
20289;BMP180;10303;51.960;8.372;2022-12-24T06:18:29;99726.00;;;12.70
20289;BMP180;10303;51.960;8.372;2022-12-24T06:20:57;99721.00;;;12.70
20289;BMP180;10303;51.960;8.372;2022-12-24T06:23:25;99727.00;;;12.70
20289;BMP180;10303;51.960;8.372;2022-12-24T06:25:51;99734.00;;;12.80
20289;BMP180;10303;51.960;8.372;2022-12-24T06:28:17;99725.00;;;12.80
20289;BMP180;10303;51.960;8.372;2022-12-24T06:30:48;99735.00;;;12.80
20289;BMP180;10303;51.960;8.372;2022-12-24T06:33:15;99741.00;;;12.80
20289;BMP180;10303;51.960;8.372;2022-12-24T06:35:43;99728.00;;;12.80
20289;BMP180;10303;51.960;8.372;2022-12-24T06:38:09;99719.00;;;12.90
20289;BMP180;10303;51.960;8.372;2022-12-24T06:40:38;99723.00;;;12.90
20289;BMP180;10303;51.960;8.372;2022-12-24T06:43:04;99734.00;;;12.90
20289;BMP180;10303;51.960;8.372;2022-12-24T06:45:30;99738.00;;;12.90
20289;BMP180;10303;51.960;8.372;2022-12-24T06:47:57;99744.00;;;13.00
20289;BMP180;10303;51.960;8.372;2022-12-24T06:50:24;99754.00;;;13.00
20289;BMP180;10303;51.960;8.372;2022-12-24T06:52:50;99750.00;;;13.00
20289;BMP180;10303;51.960;8.372;2022-12-24T06:55:15;99749.00;;;13.00
20289;BMP180;10303;51.960;8.372;2022-12-24T06:57:41;99743.00;;;13.00
20289;BMP180;10303;51.960;8.372;2022-12-24T07:00:11;99760.00;;;13.00
20289;BMP180;10303;51.960;8.372;2022-12-24T07:02:43;99752.00;;;13.00
20289;BMP180;10303;51.960;8.372;2022-12-24T07:05:11;99766.00;;;13.10
20289;BMP180;10303;51.960;8.372;2022-12-24T07:07:41;99763.00;;;13.10
20289;BMP180;10303;51.960;8.372;2022-12-24T07:10:14;99765.00;;;13.10
20289;BMP180;10303;51.960;8.372;2022-12-24T07:12:41;99772.00;;;13.10
20289;BMP180;10303;51.960;8.372;2022-12-24T07:15:09;99773.00;;;13.20
20289;BMP180;10303;51.960;8.372;2022-12-24T07:17:35;99778.00;;;13.10
20289;BMP180;10303;51.960;8.372;2022-12-24T07:20:03;99774.00;;;13.10
20289;BMP180;10303;51.960;8.372;2022-12-24T07:22:29;99782.00;;;13.20
20289;BMP180;10303;51.960;8.372;2022-12-24T07:24:55;99784.00;;;13.20
20289;BMP180;10303;51.960;8.372;2022-12-24T07:27:21;99788.00;;;13.20
20289;BMP180;10303;51.960;8.372;2022-12-24T07:29:47;99780.00;;;13.20
20289;BMP180;10303;51.960;8.372;2022-12-24T07:32:13;99782.00;;;13.10
20289;BMP180;10303;51.960;8.372;2022-12-24T07:34:39;99791.00;;;13.10
20289;BMP180;10303;51.960;8.372;2022-12-24T07:37:06;99795.00;;;13.10
20289;BMP180;10303;51.960;8.372;2022-12-24T07:39:33;99798.00;;;13.10
20289;BMP180;10303;51.960;8.372;2022-12-24T07:41:59;99805.00;;;13.10
20289;BMP180;10303;51.960;8.372;2022-12-24T07:44:25;99807.00;;;13.10
20289;BMP180;10303;51.960;8.372;2022-12-24T07:46:51;99799.00;;;13.10
20289;BMP180;10303;51.960;8.372;2022-12-24T07:49:17;99807.00;;;13.10
20289;BMP180;10303;51.960;8.372;2022-12-24T07:51:43;99818.00;;;13.10
20289;BMP180;10303;51.960;8.372;2022-12-24T07:54:09;99809.00;;;13.10
20289;BMP180;10303;51.960;8.372;2022-12-24T07:56:35;99826.00;;;13.10
20289;BMP180;10303;51.960;8.372;2022-12-24T07:59:01;99824.00;;;13.00
20289;BMP180;10303;51.960;8.372;2022-12-24T08:01:27;99819.00;;;13.10
20289;BMP180;10303;51.960;8.372;2022-12-24T08:03:53;99820.00;;;13.10
20289;BMP180;10303;51.960;8.372;2022-12-24T08:06:22;99823.00;;;13.10
20289;BMP180;10303;51.960;8.372;2022-12-24T08:08:48;99825.00;;;13.10
20289;BMP180;10303;51.960;8.372;2022-12-24T08:11:15;99837.00;;;13.10
20289;BMP180;10303;51.960;8.372;2022-12-24T08:13:41;99830.00;;;13.10
20289;BMP180;10303;51.960;8.372;2022-12-24T08:16:07;99831.00;;;13.20
20289;BMP180;10303;51.960;8.372;2022-12-24T08:18:33;99848.00;;;13.20
20289;BMP180;10303;51.960;8.372;2022-12-24T08:21:02;99843.00;;;13.20
20289;BMP180;10303;51.960;8.372;2022-12-24T08:23:31;99848.00;;;13.20
20289;BMP180;10303;51.960;8.372;2022-12-24T08:25:57;99857.00;;;13.20
20289;BMP180;10303;51.960;8.372;2022-12-24T08:28:23;99849.00;;;13.20
20289;BMP180;10303;51.960;8.372;2022-12-24T08:30:50;99859.00;;;13.20
20289;BMP180;10303;51.960;8.372;2022-12-24T08:33:17;99854.00;;;13.10
20289;BMP180;10303;51.960;8.372;2022-12-24T08:35:51;99853.00;;;13.10
20289;BMP180;10303;51.960;8.372;2022-12-24T08:38:18;99855.00;;;13.20
20289;BMP180;10303;51.960;8.372;2022-12-24T08:40:47;99857.00;;;13.20
20289;BMP180;10303;51.960;8.372;2022-12-24T08:43:18;99861.00;;;13.20
20289;BMP180;10303;51.960;8.372;2022-12-24T08:45:46;99857.00;;;13.30
20289;BMP180;10303;51.960;8.372;2022-12-24T08:48:14;99857.00;;;13.30
20289;BMP180;10303;51.960;8.372;2022-12-24T08:50:41;99883.00;;;13.30
20289;BMP180;10303;51.960;8.372;2022-12-24T08:53:08;99876.00;;;13.30
20289;BMP180;10303;51.960;8.372;2022-12-24T08:55:34;99899.00;;;13.30
20289;BMP180;10303;51.960;8.372;2022-12-24T08:58:00;99905.00;;;13.30
20289;BMP180;10303;51.960;8.372;2022-12-24T09:00:26;99905.00;;;13.20
20289;BMP180;10303;51.960;8.372;2022-12-24T09:02:59;99908.00;;;13.20
20289;BMP180;10303;51.960;8.372;2022-12-24T09:05:25;99894.00;;;13.30
20289;BMP180;10303;51.960;8.372;2022-12-24T09:07:52;99908.00;;;13.30
20289;BMP180;10303;51.960;8.372;2022-12-24T09:10:18;99896.00;;;13.30
20289;BMP180;10303;51.960;8.372;2022-12-24T09:12:43;99915.00;;;13.20
20289;BMP180;10303;51.960;8.372;2022-12-24T09:15:10;99916.00;;;13.30
20289;BMP180;10303;51.960;8.372;2022-12-24T09:17:36;99936.00;;;13.30
20289;BMP180;10303;51.960;8.372;2022-12-24T09:20:04;99930.00;;;13.30
20289;BMP180;10303;51.960;8.372;2022-12-24T09:22:35;99932.00;;;13.30
20289;BMP180;10303;51.960;8.372;2022-12-24T09:25:02;99936.00;;;13.40
20289;BMP180;10303;51.960;8.372;2022-12-24T09:27:30;99945.00;;;13.40
20289;BMP180;10303;51.960;8.372;2022-12-24T09:29:56;99947.00;;;13.40
20289;BMP180;10303;51.960;8.372;2022-12-24T09:32:22;99955.00;;;13.50
20289;BMP180;10303;51.960;8.372;2022-12-24T09:34:48;99956.00;;;13.50
20289;BMP180;10303;51.960;8.372;2022-12-24T09:37:14;99970.00;;;13.60
20289;BMP180;10303;51.960;8.372;2022-12-24T09:39:40;99969.00;;;13.60
20289;BMP180;10303;51.960;8.372;2022-12-24T09:42:30;99985.00;;;13.60
20289;BMP180;10303;51.960;8.372;2022-12-24T09:45:23;99985.00;;;13.60
20289;BMP180;10303;51.960;8.372;2022-12-24T09:48:02;99979.00;;;13.60
20289;BMP180;10303;51.960;8.372;2022-12-24T09:56:39;100007.00;;;13.50
20289;BMP180;10303;51.960;8.372;2022-12-24T09:59:13;100001.00;;;13.60
20289;BMP180;10303;51.960;8.372;2022-12-24T10:01:40;100008.00;;;13.60
20289;BMP180;10303;51.960;8.372;2022-12-24T10:04:15;100004.00;;;13.60
20289;BMP180;10303;51.960;8.372;2022-12-24T10:20:52;100019.00;;;13.70
20289;BMP180;10303;51.960;8.372;2022-12-24T10:23:43;100011.00;;;13.70
20289;BMP180;10303;51.960;8.372;2022-12-24T10:29:29;100013.00;;;13.60
20289;BMP180;10303;51.960;8.372;2022-12-24T10:37:45;100017.00;;;13.60
20289;BMP180;10303;51.960;8.372;2022-12-24T10:42:59;100019.00;;;13.60
20289;BMP180;10303;51.960;8.372;2022-12-24T10:45:35;100029.00;;;13.60
20289;BMP180;10303;51.960;8.372;2022-12-24T10:48:08;100022.00;;;13.60
20289;BMP180;10303;51.960;8.372;2022-12-24T10:51:18;100022.00;;;13.60
20289;BMP180;10303;51.960;8.372;2022-12-24T10:53:59;100034.00;;;13.70
20289;BMP180;10303;51.960;8.372;2022-12-24T10:56:26;100024.00;;;13.70
20289;BMP180;10303;51.960;8.372;2022-12-24T10:58:54;100034.00;;;13.70
20289;BMP180;10303;51.960;8.372;2022-12-24T11:01:46;100034.00;;;13.70
20289;BMP180;10303;51.960;8.372;2022-12-24T11:04:22;100041.00;;;13.70
20289;BMP180;10303;51.960;8.372;2022-12-24T11:07:02;100048.00;;;13.70
20289;BMP180;10303;51.960;8.372;2022-12-24T11:09:38;100042.00;;;13.70
20289;BMP180;10303;51.960;8.372;2022-12-24T11:12:34;100043.00;;;13.90
20289;BMP180;10303;51.960;8.372;2022-12-24T11:15:19;100049.00;;;14.00
20289;BMP180;10303;51.960;8.372;2022-12-24T11:18:12;100061.00;;;14.10
20289;BMP180;10303;51.960;8.372;2022-12-24T11:20:39;100048.00;;;14.10
20289;BMP180;10303;51.960;8.372;2022-12-24T11:23:15;100047.00;;;14.10
20289;BMP180;10303;51.960;8.372;2022-12-24T11:25:49;100055.00;;;14.10
20289;BMP180;10303;51.960;8.372;2022-12-24T11:28:26;100047.00;;;14.10
20289;BMP180;10303;51.960;8.372;2022-12-24T11:31:17;100044.00;;;14.10
20289;BMP180;10303;51.960;8.372;2022-12-24T11:33:50;100046.00;;;14.00
20289;BMP180;10303;51.960;8.372;2022-12-24T11:36:22;100045.00;;;14.00
20289;BMP180;10303;51.960;8.372;2022-12-24T11:38:56;100047.00;;;14.00
20289;BMP180;10303;51.960;8.372;2022-12-24T11:41:24;100039.00;;;13.90
20289;BMP180;10303;51.960;8.372;2022-12-24T11:44:00;100046.00;;;13.90
20289;BMP180;10303;51.960;8.372;2022-12-24T11:46:39;100036.00;;;14.00
20289;BMP180;10303;51.960;8.372;2022-12-24T11:49:15;100038.00;;;14.00
20289;BMP180;10303;51.960;8.372;2022-12-24T11:55:14;100036.00;;;14.10
20289;BMP180;10303;51.960;8.372;2022-12-24T11:57:55;100045.00;;;14.10
20289;BMP180;10303;51.960;8.372;2022-12-24T12:00:23;100041.00;;;14.10
20289;BMP180;10303;51.960;8.372;2022-12-24T12:02:51;100042.00;;;14.20
20289;BMP180;10303;51.960;8.372;2022-12-24T12:05:25;100044.00;;;14.10
20289;BMP180;10303;51.960;8.372;2022-12-24T12:08:07;100044.00;;;14.20
20289;BMP180;10303;51.960;8.372;2022-12-24T12:10:39;100048.00;;;14.30
20289;BMP180;10303;51.960;8.372;2022-12-24T12:13:15;100042.00;;;14.40
20289;BMP180;10303;51.960;8.372;2022-12-24T12:16:25;100044.00;;;14.20
20289;BMP180;10303;51.960;8.372;2022-12-24T12:19:00;100041.00;;;14.10
20289;BMP180;10303;51.960;8.372;2022-12-24T12:21:45;100042.00;;;14.20
20289;BMP180;10303;51.960;8.372;2022-12-24T12:24:21;100052.00;;;14.30
20289;BMP180;10303;51.960;8.372;2022-12-24T12:27:27;100055.00;;;14.30
20289;BMP180;10303;51.960;8.372;2022-12-24T12:30:05;100063.00;;;14.40
20289;BMP180;10303;51.960;8.372;2022-12-24T12:35:39;100074.00;;;14.40
20289;BMP180;10303;51.960;8.372;2022-12-24T12:38:22;100075.00;;;14.40
20289;BMP180;10303;51.960;8.372;2022-12-24T12:47:12;100080.00;;;14.80
20289;BMP180;10303;51.960;8.372;2022-12-24T12:50:06;100081.00;;;14.80
20289;BMP180;10303;51.960;8.372;2022-12-24T12:58:27;100084.00;;;15.20
20289;BMP180;10303;51.960;8.372;2022-12-24T13:17:04;100106.00;;;15.00
20289;BMP180;10303;51.960;8.372;2022-12-24T13:22:00;100101.00;;;14.80
20289;BMP180;10303;51.960;8.372;2022-12-24T13:24:29;100112.00;;;14.80
20289;BMP180;10303;51.960;8.372;2022-12-24T13:27:19;100117.00;;;14.70
20289;BMP180;10303;51.960;8.372;2022-12-24T13:34:59;100126.00;;;14.60
20289;BMP180;10303;51.960;8.372;2022-12-24T13:37:33;100131.00;;;14.50
20289;BMP180;10303;51.960;8.372;2022-12-24T13:45:41;100146.00;;;14.60
20289;BMP180;10303;51.960;8.372;2022-12-24T13:50:47;100139.00;;;14.50
20289;BMP180;10303;51.960;8.372;2022-12-24T13:53:32;100149.00;;;14.40
20289;BMP180;10303;51.960;8.372;2022-12-24T13:58:51;100164.00;;;14.30
20289;BMP180;10303;51.960;8.372;2022-12-24T14:01:34;100175.00;;;14.30
20289;BMP180;10303;51.960;8.372;2022-12-24T14:04:07;100169.00;;;14.20
20289;BMP180;10303;51.960;8.372;2022-12-24T14:06:39;100166.00;;;14.20
20289;BMP180;10303;51.960;8.372;2022-12-24T14:09:16;100182.00;;;14.30
20289;BMP180;10303;51.960;8.372;2022-12-24T14:14:40;100179.00;;;14.40
20289;BMP180;10303;51.960;8.372;2022-12-24T14:17:22;100178.00;;;14.40
20289;BMP180;10303;51.960;8.372;2022-12-24T14:20:00;100174.00;;;14.50
20289;BMP180;10303;51.960;8.372;2022-12-24T14:22:32;100176.00;;;14.50
20289;BMP180;10303;51.960;8.372;2022-12-24T14:25:18;100187.00;;;14.60
20289;BMP180;10303;51.960;8.372;2022-12-24T14:28:03;100177.00;;;14.50
20289;BMP180;10303;51.960;8.372;2022-12-24T14:30:30;100191.00;;;14.60
20289;BMP180;10303;51.960;8.372;2022-12-24T14:32:57;100204.00;;;14.60
20289;BMP180;10303;51.960;8.372;2022-12-24T14:35:38;100205.00;;;14.50
20289;BMP180;10303;51.960;8.372;2022-12-24T14:38:16;100203.00;;;14.50
20289;BMP180;10303;51.960;8.372;2022-12-24T14:41:18;100196.00;;;14.50
20289;BMP180;10303;51.960;8.372;2022-12-24T14:43:52;100217.00;;;14.50
20289;BMP180;10303;51.960;8.372;2022-12-24T14:46:43;100213.00;;;14.50
20289;BMP180;10303;51.960;8.372;2022-12-24T14:49:24;100211.00;;;14.50
20289;BMP180;10303;51.960;8.372;2022-12-24T14:52:28;100227.00;;;14.40
20289;BMP180;10303;51.960;8.372;2022-12-24T14:54:56;100236.00;;;14.40
20289;BMP180;10303;51.960;8.372;2022-12-24T14:57:25;100231.00;;;14.30
20289;BMP180;10303;51.960;8.372;2022-12-24T14:59:59;100242.00;;;14.30
20289;BMP180;10303;51.960;8.372;2022-12-24T15:02:35;100245.00;;;14.30
20289;BMP180;10303;51.960;8.372;2022-12-24T15:05:16;100250.00;;;14.30
20289;BMP180;10303;51.960;8.372;2022-12-24T15:07:56;100245.00;;;14.20
20289;BMP180;10303;51.960;8.372;2022-12-24T15:10:39;100251.00;;;14.20
20289;BMP180;10303;51.960;8.372;2022-12-24T15:13:20;100248.00;;;14.20
20289;BMP180;10303;51.960;8.372;2022-12-24T15:15:50;100250.00;;;14.20
20289;BMP180;10303;51.960;8.372;2022-12-24T15:18:21;100260.00;;;14.20
20289;BMP180;10303;51.960;8.372;2022-12-24T15:20:53;100267.00;;;14.20
20289;BMP180;10303;51.960;8.372;2022-12-24T15:23:33;100265.00;;;14.10
20289;BMP180;10303;51.960;8.372;2022-12-24T15:26:30;100268.00;;;14.00
20289;BMP180;10303;51.960;8.372;2022-12-24T15:28:59;100274.00;;;14.00
20289;BMP180;10303;51.960;8.372;2022-12-24T15:31:27;100273.00;;;14.00
20289;BMP180;10303;51.960;8.372;2022-12-24T15:33:56;100262.00;;;13.90
20289;BMP180;10303;51.960;8.372;2022-12-24T15:39:05;100273.00;;;13.90
20289;BMP180;10303;51.960;8.372;2022-12-24T15:41:41;100286.00;;;13.80
20289;BMP180;10303;51.960;8.372;2022-12-24T15:44:34;100286.00;;;13.80
20289;BMP180;10303;51.960;8.372;2022-12-24T15:47:05;100294.00;;;13.80
20289;BMP180;10303;51.960;8.372;2022-12-24T15:49:34;100298.00;;;13.70
20289;BMP180;10303;51.960;8.372;2022-12-24T15:52:14;100297.00;;;13.70
20289;BMP180;10303;51.960;8.372;2022-12-24T15:54:47;100293.00;;;13.70
20289;BMP180;10303;51.960;8.372;2022-12-24T15:57:26;100303.00;;;13.60
20289;BMP180;10303;51.960;8.372;2022-12-24T15:59:57;100296.00;;;13.50
20289;BMP180;10303;51.960;8.372;2022-12-24T16:02:40;100288.00;;;13.50
20289;BMP180;10303;51.960;8.372;2022-12-24T16:05:37;100297.00;;;13.40
20289;BMP180;10303;51.960;8.372;2022-12-24T16:08:21;100301.00;;;13.40
20289;BMP180;10303;51.960;8.372;2022-12-24T16:11:51;100302.00;;;13.30
20289;BMP180;10303;51.960;8.372;2022-12-24T16:14:13;100303.00;;;13.30
20289;BMP180;10303;51.960;8.372;2022-12-24T16:16:50;100310.00;;;13.30
20289;BMP180;10303;51.960;8.372;2022-12-24T16:19:30;100313.00;;;13.20
20289;BMP180;10303;51.960;8.372;2022-12-24T16:22:00;100325.00;;;13.20
20289;BMP180;10303;51.960;8.372;2022-12-24T16:24:50;100332.00;;;13.20
20289;BMP180;10303;51.960;8.372;2022-12-24T16:27:20;100333.00;;;13.10
20289;BMP180;10303;51.960;8.372;2022-12-24T16:29:46;100337.00;;;13.10